Time;durP1;ratioP1;P1;durP2;ratioP2;P2;SDS_P1;SDS_P2;PMS_P1;PMS_P2;Temp;Humidity;BMP_temperature;BMP_pressure;BME280_temperature;BME280_humidity;BME280_pressure;Samples;Min_cycle;Max_cycle;Signal;HPM_P1;HPM_P2
2023/04/10 00:02:14;;;;;;;13.30;9.90;;;9.40;99.90;;;;;;4859165;29;20506;-73
2023/04/10 00:04:42;;;;;;;20.50;12.90;;;9.30;99.90;;;;;;4845208;29;21304;-74
2023/04/10 00:07:10;;;;;;;14.63;10.30;;;9.40;99.90;;;;;;4884022;29;20486;-75
2023/04/10 00:09:46;;;;;;;21.97;13.33;;;9.40;99.90;;;;;;4870690;29;20470;-75
2023/04/10 00:12:15;;;;;;;24.47;12.80;;;9.30;99.90;;;;;;4873718;29;20449;-76
2023/04/10 00:17:27;;;;;;;27.03;13.83;;;9.30;99.90;;;;;;4869520;29;20458;-75
2023/04/10 00:20:03;;;;;;;21.73;15.03;;;9.30;99.90;;;;;;4853844;29;20459;-74
2023/04/10 00:22:34;;;;;;;27.30;15.13;;;9.30;99.90;;;;;;4877396;29;20489;-75
2023/04/10 00:25:01;;;;;;;30.53;16.10;;;9.30;99.90;;;;;;4872328;29;20471;-74
2023/04/10 00:27:31;;;;;;;26.07;14.70;;;9.30;99.90;;;;;;4883511;29;20542;-75
2023/04/10 00:29:57;;;;;;;30.47;15.17;;;9.30;99.90;;;;;;4882776;29;20467;-75
2023/04/10 00:32:25;;;;;;;28.27;16.27;;;9.30;99.90;;;;;;4878627;29;21029;-75
2023/04/10 00:34:54;;;;;;;28.40;13.60;;;9.20;99.90;;;;;;4879896;29;21071;-74
2023/04/10 00:37:23;;;;;;;35.03;19.73;;;9.10;99.90;;;;;;4872618;29;20460;-76
2023/04/10 00:39:52;;;;;;;27.63;16.27;;;9.10;99.90;;;;;;4880734;29;20449;-74
2023/04/10 00:42:25;;;;;;;32.30;17.73;;;9.10;99.90;;;;;;4885575;29;20552;-75
2023/04/10 00:44:52;;;;;;;31.70;16.87;;;9.20;99.90;;;;;;4882011;29;20499;-75
2023/04/10 00:47:22;;;;;;;32.83;17.13;;;9.10;99.90;;;;;;4866068;29;20590;-74
2023/04/10 00:49:49;;;;;;;33.53;17.27;;;9.10;99.90;;;;;;4880249;29;20556;-74
2023/04/10 00:52:16;;;;;;;34.90;18.80;;;9.00;99.90;;;;;;4896721;29;20463;-75
2023/04/10 00:54:46;;;;;;;36.13;14.73;;;9.10;99.90;;;;;;4877198;29;20963;-75
2023/04/10 00:57:14;;;;;;;34.27;17.70;;;9.10;99.90;;;;;;4877107;29;20867;-74
2023/04/10 00:59:41;;;;;;;29.63;16.73;;;9.00;99.90;;;;;;4882314;29;20474;-75
2023/04/10 01:02:11;;;;;;;27.77;19.23;;;9.00;99.90;;;;;;4868492;29;20467;-75
2023/04/10 01:04:39;;;;;;;35.67;17.20;;;9.00;99.90;;;;;;4864460;29;20493;-75
2023/04/10 01:07:17;;;;;;;27.33;17.43;;;9.00;99.90;;;;;;4865758;29;20479;-74
2023/04/10 01:09:51;;;;;;;26.20;16.77;;;9.00;99.90;;;;;;4885553;29;20468;-75
2023/04/10 01:12:34;;;;;;;22.83;17.33;;;9.00;99.90;;;;;;4879922;29;21060;-75
2023/04/10 01:15:09;;;;;;;35.37;20.07;;;8.90;99.90;;;;;;4878517;29;20520;-74
2023/04/10 01:17:45;;;;;;;36.37;18.17;;;8.90;99.90;;;;;;4864641;29;22040;-75
2023/04/10 01:20:15;;;;;;;40.93;20.40;;;8.90;99.90;;;;;;4880188;29;20432;-75
2023/04/10 01:23:00;;;;;;;37.27;19.53;;;8.90;99.90;;;;;;4881243;29;20907;-75
2023/04/10 01:25:42;;;;;;;29.80;18.63;;;8.90;99.90;;;;;;4847453;29;20884;-74
2023/04/10 01:28:50;;;;;;;26.97;15.30;;;8.90;99.90;;;;;;4880257;29;20470;-74
2023/04/10 01:31:24;;;;;;;37.47;16.37;;;8.80;99.90;;;;;;4874398;29;21890;-76
2023/04/10 01:33:58;;;;;;;30.33;17.33;;;8.90;99.90;;;;;;4874277;29;20538;-74
2023/04/10 01:36:31;;;;;;;30.10;19.23;;;8.90;99.90;;;;;;4876642;29;20437;-74
2023/04/10 01:39:02;;;;;;;29.23;17.00;;;8.90;99.90;;;;;;4855876;29;20434;-74
2023/04/10 01:41:34;;;;;;;26.50;16.80;;;8.90;99.90;;;;;;4869959;29;20457;-75
2023/04/10 01:44:06;;;;;;;31.20;16.87;;;8.90;99.90;;;;;;4877309;29;20588;-74
2023/04/10 01:46:41;;;;;;;29.70;16.03;;;8.80;99.90;;;;;;4849674;29;20686;-74
2023/04/10 01:49:10;;;;;;;31.40;15.97;;;8.80;99.90;;;;;;4873621;29;20447;-75
2023/04/10 01:51:38;;;;;;;29.97;15.17;;;8.80;99.90;;;;;;4893048;29;20468;-75
2023/04/10 01:54:07;;;;;;;33.80;17.53;;;8.70;99.90;;;;;;4874657;29;20569;-75
2023/04/10 01:56:34;;;;;;;28.73;16.47;;;8.70;99.90;;;;;;4876828;29;20504;-75
2023/04/10 01:59:05;;;;;;;36.83;17.40;;;8.70;99.90;;;;;;4878126;29;20837;-74
2023/04/10 02:01:32;;;;;;;36.23;20.57;;;8.70;99.90;;;;;;4883843;29;20449;-76
2023/04/10 02:04:01;;;;;;;34.43;18.90;;;8.70;99.90;;;;;;4878224;29;20498;-75
2023/04/10 02:06:40;;;;;;;35.90;16.43;;;8.60;99.90;;;;;;4847710;29;20491;-75
2023/04/10 02:09:18;;;;;;;28.67;19.17;;;8.60;99.90;;;;;;4878048;29;20870;-76
2023/04/10 02:11:56;;;;;;;32.37;18.27;;;8.60;99.90;;;;;;4865931;29;20508;-76
2023/04/10 02:14:28;;;;;;;27.63;17.47;;;8.60;99.90;;;;;;4878626;29;20509;-74
2023/04/10 02:16:57;;;;;;;36.00;19.17;;;8.60;99.90;;;;;;4871496;29;20491;-75
2023/04/10 02:19:27;;;;;;;31.73;16.53;;;8.60;99.90;;;;;;4868929;29;22161;-74
2023/04/10 02:21:59;;;;;;;36.40;20.47;;;8.50;99.90;;;;;;4878481;29;20506;-76
2023/04/10 02:24:27;;;;;;;33.73;16.77;;;8.50;99.90;;;;;;4826536;29;20491;-75
2023/04/10 02:26:56;;;;;;;32.93;17.40;;;8.60;99.90;;;;;;4868676;29;20441;-75
2023/04/10 02:29:29;;;;;;;40.13;17.20;;;8.50;99.90;;;;;;4869529;29;20492;-76
2023/04/10 02:32:00;;;;;;;28.67;18.20;;;8.50;99.90;;;;;;4877204;29;20446;-74
2023/04/10 02:34:27;;;;;;;40.67;17.23;;;8.50;99.90;;;;;;4878216;29;21587;-74
2023/04/10 02:36:55;;;;;;;27.97;16.97;;;8.50;99.90;;;;;;4875129;29;20445;-75
2023/04/10 02:39:23;;;;;;;26.23;14.60;;;8.50;99.90;;;;;;4874696;29;20470;-76
2023/04/10 02:41:51;;;;;;;27.67;16.10;;;8.50;99.90;;;;;;4879985;29;20477;-76
2023/04/10 02:44:18;;;;;;;36.70;17.07;;;8.50;99.90;;;;;;4878337;29;20548;-77
2023/04/10 02:46:50;;;;;;;26.17;14.67;;;8.50;99.90;;;;;;4893448;29;20474;-77
2023/04/10 02:49:19;;;;;;;28.40;18.47;;;8.40;99.90;;;;;;4876342;29;20463;-75
2023/04/10 02:51:46;;;;;;;29.43;17.60;;;8.40;99.90;;;;;;4883635;29;20477;-75
2023/04/10 02:54:14;;;;;;;20.63;16.03;;;8.40;99.90;;;;;;4878677;29;21227;-75
2023/04/10 02:56:43;;;;;;;26.43;15.40;;;8.40;99.90;;;;;;4874214;29;20489;-75
2023/04/10 02:59:16;;;;;;;26.73;16.40;;;8.40;99.90;;;;;;4874924;29;20492;-75
2023/04/10 03:01:44;;;;;;;21.13;13.77;;;8.30;99.90;;;;;;4892500;29;20437;-78
2023/04/10 03:04:13;;;;;;;20.03;13.50;;;8.30;99.90;;;;;;4870306;29;20499;-75
2023/04/10 03:06:40;;;;;;;30.73;14.40;;;8.30;99.90;;;;;;4874550;29;20568;-75
2023/04/10 03:09:30;;;;;;;23.83;15.20;;;8.40;99.90;;;;;;4882048;29;20561;-76
2023/04/10 03:12:02;;;;;;;21.87;13.17;;;8.30;99.90;;;;;;4888944;29;20422;-77
2023/04/10 03:14:31;;;;;;;22.40;11.53;;;8.30;99.90;;;;;;4823599;29;21985;-74
2023/04/10 03:16:58;;;;;;;26.97;15.13;;;8.40;99.90;;;;;;4875457;29;21679;-74
2023/04/10 03:19:26;;;;;;;23.10;13.43;;;8.40;99.90;;;;;;4850895;29;21037;-74
2023/04/10 03:21:53;;;;;;;19.67;13.63;;;8.40;99.90;;;;;;4838503;29;20541;-74
2023/04/10 03:24:21;;;;;;;26.30;11.27;;;8.50;99.90;;;;;;4841363;29;21920;-74
2023/04/10 03:26:48;;;;;;;21.17;12.60;;;8.50;99.90;;;;;;4879643;29;20473;-75
2023/04/10 03:29:17;;;;;;;21.83;13.53;;;8.40;99.90;;;;;;4865175;29;21007;-75
2023/04/10 03:31:44;;;;;;;23.03;12.43;;;8.40;99.90;;;;;;4874421;29;20429;-74
2023/04/10 03:34:15;;;;;;;23.10;11.40;;;8.30;99.90;;;;;;4880436;29;20544;-75
2023/04/10 03:36:45;;;;;;;13.77;10.47;;;8.30;99.90;;;;;;4831012;29;20559;-74
2023/04/10 03:39:12;;;;;;;20.73;11.33;;;8.30;99.90;;;;;;4879278;29;20487;-75
2023/04/10 03:41:42;;;;;;;23.50;11.67;;;8.20;99.90;;;;;;4876115;29;20587;-73
2023/04/10 03:44:09;;;;;;;25.80;13.20;;;8.30;99.90;;;;;;4875686;29;20811;-75
2023/04/10 03:46:39;;;;;;;17.00;12.57;;;8.20;99.90;;;;;;4874645;29;20476;-75
2023/04/10 03:49:12;;;;;;;14.80;9.93;;;8.20;99.90;;;;;;4883981;29;20534;-74
2023/04/10 03:51:39;;;;;;;18.10;10.60;;;8.20;99.90;;;;;;4866471;29;20445;-74
2023/04/10 03:54:08;;;;;;;17.90;10.57;;;8.30;99.90;;;;;;4886946;29;20498;-75
2023/04/10 03:56:36;;;;;;;15.47;10.20;;;8.30;99.90;;;;;;4877152;29;20526;-74
2023/04/10 03:59:03;;;;;;;15.40;10.60;;;8.20;99.90;;;;;;4869065;29;21213;-74
2023/04/10 04:01:31;;;;;;;20.60;10.47;;;8.20;99.90;;;;;;4867733;29;20482;-74
2023/04/10 04:03:59;;;;;;;17.03;11.07;;;8.20;99.90;;;;;;4875163;29;21023;-76
2023/04/10 04:06:30;;;;;;;17.80;10.70;;;8.30;99.90;;;;;;4878920;29;20525;-76
2023/04/10 04:09:02;;;;;;;19.43;11.97;;;8.30;99.90;;;;;;4869980;29;20440;-75
2023/04/10 04:11:32;;;;;;;16.23;10.03;;;8.20;99.90;;;;;;4884215;29;20444;-74
2023/04/10 04:13:59;;;;;;;17.07;11.73;;;8.20;99.90;;;;;;4896663;29;20461;-75
2023/04/10 04:16:27;;;;;;;14.73;10.90;;;8.20;99.90;;;;;;4876208;29;20449;-76
2023/04/10 04:18:54;;;;;;;20.03;12.37;;;8.20;99.90;;;;;;4877140;29;20563;-75
2023/04/10 04:21:30;;;;;;;15.63;9.07;;;8.10;99.90;;;;;;4879916;29;20545;-75
2023/04/10 04:23:58;;;;;;;16.17;10.60;;;8.10;99.90;;;;;;4877334;29;20498;-73
2023/04/10 04:26:25;;;;;;;18.50;9.00;;;8.00;99.90;;;;;;4883011;29;20469;-75
2023/04/10 04:28:56;;;;;;;18.23;9.30;;;8.10;99.90;;;;;;4879241;29;20998;-75
2023/04/10 04:31:31;;;;;;;22.40;11.90;;;8.00;99.90;;;;;;4869695;29;21034;-75
2023/04/10 04:33:59;;;;;;;20.10;11.27;;;8.00;99.90;;;;;;4880664;29;20602;-73
2023/04/10 04:36:27;;;;;;;24.60;14.07;;;7.90;99.90;;;;;;4874946;29;20468;-74
2023/04/10 04:38:54;;;;;;;27.50;13.40;;;7.90;99.90;;;;;;4867831;29;20460;-74
2023/04/10 04:41:22;;;;;;;14.70;9.30;;;7.90;99.90;;;;;;4876246;29;20548;-74
2023/04/10 04:43:52;;;;;;;28.13;14.43;;;7.90;99.90;;;;;;4875466;29;20610;-74
2023/04/10 04:46:21;;;;;;;21.40;11.97;;;7.80;99.90;;;;;;4874268;29;21180;-73
2023/04/10 04:48:47;;;;;;;23.50;15.30;;;7.90;99.90;;;;;;4880017;29;20450;-74
2023/04/10 04:51:14;;;;;;;23.40;14.60;;;7.90;99.90;;;;;;4863803;29;20434;-74
2023/04/10 04:53:41;;;;;;;29.50;14.63;;;7.90;99.90;;;;;;4882617;29;20461;-75
2023/04/10 04:56:09;;;;;;;24.03;14.43;;;7.90;99.90;;;;;;4875613;29;21011;-73
2023/04/10 04:58:37;;;;;;;21.87;12.97;;;8.00;99.90;;;;;;4884726;29;20485;-74
2023/04/10 05:01:04;;;;;;;22.30;13.57;;;7.90;99.90;;;;;;4876800;29;20965;-73
2023/04/10 05:03:32;;;;;;;22.43;13.50;;;7.90;99.90;;;;;;4881658;29;20591;-74
2023/04/10 05:05:59;;;;;;;20.40;15.33;;;7.90;99.90;;;;;;4886844;29;21048;-74
2023/04/10 05:08:27;;;;;;;27.07;13.93;;;7.90;99.90;;;;;;4858194;29;20558;-74
2023/04/10 05:10:55;;;;;;;25.70;14.43;;;7.80;99.90;;;;;;4886673;29;20445;-75
2023/04/10 05:13:22;;;;;;;25.30;14.23;;;7.90;99.90;;;;;;4882923;29;20450;-74
2023/04/10 05:15:49;;;;;;;22.77;12.87;;;7.90;99.90;;;;;;4875983;29;20507;-74
2023/04/10 05:18:18;;;;;;;24.20;12.83;;;7.90;99.90;;;;;;4874686;29;21052;-74
2023/04/10 05:20:47;;;;;;;20.23;13.23;;;7.90;99.90;;;;;;4874436;29;20654;-74
2023/04/10 05:23:14;;;;;;;26.03;14.70;;;7.90;99.90;;;;;;4880943;29;20495;-74
2023/04/10 05:25:41;;;;;;;27.30;13.40;;;7.90;99.90;;;;;;4883870;29;20453;-74
2023/04/10 05:28:08;;;;;;;27.57;14.53;;;8.00;99.90;;;;;;4880963;29;20457;-75
2023/04/10 05:30:36;;;;;;;23.30;13.87;;;8.10;99.90;;;;;;4879435;29;20554;-74
2023/04/10 05:33:02;;;;;;;43.47;16.07;;;8.10;99.90;;;;;;4878175;29;20489;-74
2023/04/10 05:35:29;;;;;;;22.70;11.87;;;8.10;99.90;;;;;;4875405;29;20535;-74
2023/04/10 05:37:59;;;;;;;29.77;13.97;;;8.20;99.90;;;;;;4892698;29;20459;-74
2023/04/10 05:40:27;;;;;;;20.63;13.47;;;8.20;99.90;;;;;;4890139;29;20475;-74
2023/04/10 05:42:55;;;;;;;24.90;13.00;;;8.20;99.90;;;;;;4872237;29;20564;-74
2023/04/10 05:45:22;;;;;;;22.83;14.13;;;8.30;99.90;;;;;;4868987;29;20549;-74
2023/04/10 05:47:50;;;;;;;24.47;14.07;;;8.30;99.90;;;;;;4887907;29;20842;-74
2023/04/10 05:50:29;;;;;;;24.73;13.90;;;8.30;99.90;;;;;;4893516;29;20493;-74
2023/04/10 05:53:06;;;;;;;28.87;15.53;;;8.40;99.90;;;;;;4884498;29;20501;-74
2023/04/10 05:55:48;;;;;;;22.80;13.60;;;8.30;99.90;;;;;;4865148;29;20980;-74
2023/04/10 05:58:21;;;;;;;22.20;12.20;;;8.30;99.90;;;;;;4879562;29;20582;-74
2023/04/10 06:00:58;;;;;;;27.67;13.47;;;8.30;99.90;;;;;;4884880;29;20468;-74
2023/04/10 06:03:31;;;;;;;25.37;13.70;;;8.50;99.90;;;;;;4866113;29;20494;-74
2023/04/10 06:06:12;;;;;;;28.77;13.67;;;8.60;99.90;;;;;;4856956;29;20442;-73
2023/04/10 06:08:47;;;;;;;25.17;13.17;;;8.70;99.90;;;;;;4865313;29;21086;-74
2023/04/10 06:11:17;;;;;;;19.37;11.13;;;8.90;99.90;;;;;;4875515;29;20471;-75
2023/04/10 06:13:44;;;;;;;17.77;11.00;;;9.10;99.90;;;;;;4879528;29;20486;-74
2023/04/10 06:16:13;;;;;;;19.00;14.47;;;9.30;99.90;;;;;;4844787;29;20543;-74
2023/04/10 06:18:41;;;;;;;22.43;12.90;;;9.60;99.90;;;;;;4863714;29;22180;-75
2023/04/10 06:21:14;;;;;;;26.53;12.83;;;9.80;99.90;;;;;;4873520;29;20450;-74
2023/04/10 06:23:43;;;;;;;25.30;14.67;;;10.10;99.90;;;;;;4859195;29;21191;-74
2023/04/10 06:26:10;;;;;;;21.63;12.20;;;10.80;99.90;;;;;;4878861;29;20840;-75
2023/04/10 06:28:45;;;;;;;24.13;12.43;;;11.10;99.90;;;;;;4865790;29;20595;-75
2023/04/10 06:31:17;;;;;;;22.20;13.23;;;11.30;99.90;;;;;;4877430;29;20861;-76
2023/04/10 06:33:48;;;;;;;24.37;14.20;;;11.60;99.90;;;;;;4868055;29;20626;-76
2023/04/10 06:36:25;;;;;;;25.67;14.20;;;12.00;99.90;;;;;;4865057;29;20565;-74
2023/04/10 06:38:56;;;;;;;21.87;11.17;;;12.20;99.90;;;;;;4867998;29;20489;-75
2023/04/10 06:44:17;;;;;;;23.37;12.13;;;12.60;99.90;;;;;;4851749;29;20520;-76
2023/04/10 06:46:58;;;;;;;20.37;12.63;;;12.80;99.90;;;;;;4856954;29;20493;-75
2023/04/10 06:49:40;;;;;;;19.73;10.93;;;13.00;99.90;;;;;;4864815;29;21028;-76
2023/04/10 06:52:40;;;;;;;20.53;11.70;;;13.10;99.90;;;;;;4871532;29;20481;-75
2023/04/10 06:55:15;;;;;;;21.87;13.93;;;13.00;99.90;;;;;;4860981;29;20600;-75
2023/04/10 06:57:42;;;;;;;19.70;12.20;;;13.50;99.90;;;;;;4865990;29;20498;-75
2023/04/10 07:00:13;;;;;;;16.80;10.03;;;13.70;99.90;;;;;;4865210;29;20482;-76
2023/04/10 07:02:41;;;;;;;18.20;10.40;;;13.90;99.90;;;;;;4862745;29;20486;-74
2023/04/10 07:05:19;;;;;;;16.53;10.00;;;14.10;99.90;;;;;;4861410;29;20527;-76
2023/04/10 07:07:57;;;;;;;22.17;11.77;;;14.20;99.90;;;;;;4860088;29;20474;-75
2023/04/10 07:10:31;;;;;;;14.23;9.30;;;14.50;99.90;;;;;;4869844;29;20601;-76
2023/04/10 07:12:59;;;;;;;16.50;10.50;;;14.70;99.90;;;;;;4868646;29;20617;-76
2023/04/10 07:15:26;;;;;;;17.00;10.17;;;15.00;99.90;;;;;;4866505;29;20473;-75
2023/04/10 07:17:56;;;;;;;14.70;9.60;;;15.60;99.90;;;;;;4859277;29;20545;-75
2023/04/10 07:20:26;;;;;;;15.33;10.20;;;15.70;99.90;;;;;;4865700;29;20832;-76
2023/04/10 07:22:55;;;;;;;16.67;9.97;;;15.70;99.90;;;;;;4865899;29;20494;-75
2023/04/10 07:25:25;;;;;;;11.60;9.23;;;15.90;99.90;;;;;;4880699;29;20466;-75
2023/04/10 07:28:00;;;;;;;13.00;7.90;;;16.20;99.90;;;;;;4873518;29;20483;-76
2023/04/10 07:30:27;;;;;;;9.90;7.73;;;16.10;99.90;;;;;;4868413;29;21643;-77
2023/04/10 07:33:02;;;;;;;16.17;7.90;;;16.20;99.70;;;;;;4871854;29;20591;-76
2023/04/10 07:35:32;;;;;;;10.30;6.93;;;16.00;99.60;;;;;;4892962;29;20462;-75
2023/04/10 07:38:01;;;;;;;7.47;5.80;;;16.00;99.20;;;;;;4872893;29;20830;-75
2023/04/10 07:40:30;;;;;;;9.70;5.07;;;16.30;99.90;;;;;;4875733;29;20500;-77
2023/04/10 07:43:09;;;;;;;4.93;4.43;;;16.50;98.50;;;;;;4871391;29;20859;-75
2023/04/10 07:45:41;;;;;;;4.20;2.70;;;16.60;96.70;;;;;;4863332;29;20516;-77
2023/04/10 07:48:09;;;;;;;3.50;3.03;;;16.10;94.40;;;;;;4877611;29;20471;-75
2023/04/10 07:50:36;;;;;;;3.10;2.40;;;15.60;92.80;;;;;;4868890;29;20465;-74
2023/04/10 07:53:06;;;;;;;21.13;3.30;;;15.30;92.00;;;;;;4869738;29;20490;-77
2023/04/10 07:55:42;;;;;;;4.80;3.70;;;15.60;92.00;;;;;;4872692;29;20489;-74
2023/04/10 07:58:13;;;;;;;5.10;3.17;;;15.50;91.80;;;;;;4879113;29;20740;-76
2023/04/10 08:00:40;;;;;;;4.20;2.93;;;15.90;93.00;;;;;;4874633;29;20976;-74
2023/04/10 08:03:08;;;;;;;2.93;2.00;;;15.90;91.50;;;;;;4862744;29;20565;-77
2023/04/10 08:05:35;;;;;;;2.30;2.10;;;15.90;90.40;;;;;;4870590;29;21227;-78
2023/04/10 08:08:05;;;;;;;3.13;2.50;;;16.10;90.90;;;;;;4873128;29;20462;-76
2023/04/10 08:10:32;;;;;;;3.47;2.63;;;16.10;89.20;;;;;;4851445;29;22077;-74
2023/04/10 08:12:59;;;;;;;3.10;2.10;;;16.10;86.70;;;;;;4876903;29;20516;-74
2023/04/10 08:15:28;;;;;;;3.30;2.30;;;16.90;87.50;;;;;;4871770;29;20488;-75
2023/04/10 08:17:57;;;;;;;3.00;2.27;;;16.80;84.40;;;;;;4868008;29;20656;-74
2023/04/10 08:20:24;;;;;;;3.70;2.57;;;16.50;83.10;;;;;;4879811;29;20831;-75
2023/04/10 08:22:51;;;;;;;4.00;3.37;;;16.40;84.70;;;;;;4881404;29;20487;-76
2023/04/10 08:25:18;;;;;;;3.10;2.60;;;16.30;83.10;;;;;;4881054;29;20459;-75
2023/04/10 08:27:48;;;;;;;2.93;1.90;;;16.50;81.40;;;;;;4882952;29;20470;-74
2023/04/10 08:30:17;;;;;;;7.60;3.60;;;17.50;78.10;;;;;;4872958;29;20970;-75
2023/04/10 08:32:45;;;;;;;3.07;2.47;;;18.00;78.50;;;;;;4861402;29;20555;-76
2023/04/10 08:35:14;;;;;;;3.60;3.00;;;17.80;76.60;;;;;;4886366;29;20510;-77
2023/04/10 08:37:41;;;;;;;3.70;2.43;;;17.80;76.70;;;;;;4872236;29;20494;-74
2023/04/10 08:40:09;;;;;;;2.40;2.20;;;18.70;74.10;;;;;;4833297;29;20634;-75
2023/04/10 08:42:36;;;;;;;3.30;2.90;;;19.00;75.10;;;;;;4873658;29;21287;-79
2023/04/10 08:45:07;;;;;;;4.20;2.80;;;19.30;71.70;;;;;;4869557;29;20574;-78
2023/04/10 08:47:41;;;;;;;2.97;2.30;;;19.80;71.10;;;;;;4877175;29;20926;-79
2023/04/10 08:50:13;;;;;;;5.57;2.87;;;19.70;68.80;;;;;;4874878;29;21162;-74
2023/04/10 08:52:46;;;;;;;3.87;3.30;;;20.10;68.60;;;;;;4849510;29;21084;-77
2023/04/10 08:55:14;;;;;;;2.23;1.87;;;19.70;64.20;;;;;;4870252;29;21157;-74
2023/04/10 08:57:43;;;;;;;3.37;2.30;;;19.50;63.40;;;;;;4869812;29;20498;-75
2023/04/10 09:00:10;;;;;;;3.23;2.17;;;19.30;65.60;;;;;;4873537;29;21202;-75
2023/04/10 09:02:49;;;;;;;5.10;2.60;;;19.60;65.80;;;;;;4862424;29;20487;-76
2023/04/10 09:05:18;;;;;;;3.00;2.70;;;19.60;63.20;;;;;;4864302;29;20464;-74
2023/04/10 09:07:45;;;;;;;2.23;1.77;;;19.80;64.70;;;;;;4869445;29;20646;-76
2023/04/10 09:10:16;;;;;;;2.53;1.77;;;19.90;61.50;;;;;;4870756;29;21005;-76
2023/04/10 09:12:45;;;;;;;2.13;1.87;;;20.10;60.30;;;;;;4872339;29;21258;-75
2023/04/10 09:15:13;;;;;;;2.20;1.73;;;20.50;59.80;;;;;;4856600;29;20671;-75
2023/04/10 09:17:56;;;;;;;2.70;2.33;;;19.90;58.40;;;;;;4868069;29;20493;-74
2023/04/10 09:20:30;;;;;;;3.37;2.10;;;19.60;59.10;;;;;;4865556;29;20498;-77
2023/04/10 09:23:02;;;;;;;2.57;2.10;;;19.40;59.20;;;;;;4867555;29;20515;-74
2023/04/10 09:25:32;;;;;;;4.33;3.03;;;19.50;60.20;;;;;;4872633;29;20469;-78
2023/04/10 09:28:06;;;;;;;2.33;2.10;;;20.00;60.70;;;;;;4878379;29;20522;-74
2023/04/10 09:30:38;;;;;;;2.30;1.50;;;21.20;57.60;;;;;;4869447;29;20466;-76
2023/04/10 09:33:22;;;;;;;2.90;2.30;;;20.80;56.30;;;;;;4876748;29;20557;-81
2023/04/10 09:35:51;;;;;;;2.37;1.77;;;20.80;57.40;;;;;;4879043;29;20975;-77
2023/04/10 09:38:19;;;;;;;2.23;1.80;;;21.80;55.40;;;;;;4874999;29;20515;-75
2023/04/10 09:40:49;;;;;;;2.90;2.07;;;21.50;53.60;;;;;;4874062;29;20500;-74
2023/04/10 09:43:23;;;;;;;2.53;2.07;;;20.90;54.60;;;;;;4871697;29;20501;-77
2023/04/10 09:45:55;;;;;;;1.80;1.70;;;20.80;54.00;;;;;;4880753;29;20518;-76
2023/04/10 09:48:26;;;;;;;3.90;3.23;;;21.10;53.00;;;;;;4869097;29;20506;-75
2023/04/10 09:50:54;;;;;;;2.70;1.37;;;20.20;53.50;;;;;;4875629;29;20871;-75
2023/04/10 09:53:21;;;;;;;2.53;1.70;;;20.30;53.40;;;;;;4836852;29;20490;-74
2023/04/10 09:55:50;;;;;;;2.23;2.00;;;19.30;53.90;;;;;;4870597;29;20477;-75
2023/04/10 09:58:17;;;;;;;2.13;1.90;;;18.90;54.50;;;;;;4878983;29;20506;-75
2023/04/10 10:00:47;;;;;;;2.63;2.43;;;19.50;56.40;;;;;;4838614;29;20487;-76
2023/04/10 10:03:19;;;;;;;2.07;1.87;;;20.10;55.60;;;;;;4863807;29;20907;-75
2023/04/10 10:05:51;;;;;;;2.40;1.63;;;20.80;55.10;;;;;;4874387;29;20886;-73
2023/04/10 10:08:21;;;;;;;2.33;1.90;;;21.10;55.10;;;;;;4878550;29;20501;-75
2023/04/10 10:10:51;;;;;;;3.77;2.27;;;20.70;52.80;;;;;;4875031;29;20530;-74
2023/04/10 10:13:28;;;;;;;3.87;1.80;;;20.00;53.90;;;;;;4875480;29;20594;-75
2023/04/10 10:16:04;;;;;;;2.33;1.80;;;19.50;54.50;;;;;;4837804;29;20466;-75
2023/04/10 10:18:39;;;;;;;1.70;1.40;;;19.60;54.60;;;;;;4872641;29;20651;-77
2023/04/10 10:21:09;;;;;;;2.47;1.83;;;19.40;54.80;;;;;;4880836;29;20486;-76
2023/04/10 10:23:41;;;;;;;3.23;1.80;;;19.70;56.10;;;;;;4868149;29;20486;-76
2023/04/10 10:26:19;;;;;;;2.17;1.70;;;20.10;55.50;;;;;;4862503;29;20559;-75
2023/04/10 10:28:47;;;;;;;2.53;1.90;;;20.90;54.60;;;;;;4870864;29;20471;-75
2023/04/10 10:31:16;;;;;;;2.27;2.07;;;20.50;53.80;;;;;;4862118;29;20667;-77
2023/04/10 10:33:45;;;;;;;3.80;1.83;;;20.80;53.90;;;;;;4889915;29;20490;-75
2023/04/10 10:36:15;;;;;;;2.00;1.73;;;20.70;53.50;;;;;;4878821;29;20467;-76
2023/04/10 10:38:58;;;;;;;2.77;2.53;;;20.30;53.60;;;;;;4877974;29;20509;-73
2023/04/10 10:41:30;;;;;;;2.43;1.70;;;20.30;54.40;;;;;;4872444;29;20479;-74
2023/04/10 10:44:08;;;;;;;2.20;1.73;;;19.90;54.10;;;;;;4871045;29;20497;-75
2023/04/10 10:46:43;;;;;;;3.20;1.73;;;19.40;53.40;;;;;;4868484;29;23205;-74
2023/04/10 10:49:10;;;;;;;2.30;2.10;;;19.30;54.80;;;;;;4875712;29;20509;-73
2023/04/10 10:51:45;;;;;;;3.43;1.87;;;20.20;54.10;;;;;;4880813;29;20485;-75
2023/04/10 10:54:35;;;;;;;2.47;2.00;;;20.70;52.90;;;;;;4876201;29;21090;-75
2023/04/10 10:57:05;;;;;;;2.07;1.87;;;21.20;52.30;;;;;;4876284;29;20498;-75
2023/04/10 10:59:57;;;;;;;2.73;2.30;;;21.20;52.40;;;;;;4871658;29;20475;-74
2023/04/10 11:02:24;;;;;;;2.50;1.63;;;21.60;52.10;;;;;;4870242;29;20477;-75
2023/04/10 11:04:54;;;;;;;3.07;2.17;;;21.30;51.40;;;;;;4869297;29;20601;-75
2023/04/10 11:07:24;;;;;;;3.13;1.80;;;20.80;51.40;;;;;;4875063;29;20690;-75
2023/04/10 11:09:55;;;;;;;2.47;2.00;;;20.20;51.30;;;;;;4881488;29;20801;-76
2023/04/10 11:12:24;;;;;;;2.80;2.50;;;20.40;52.00;;;;;;4881567;29;21964;-77
2023/04/10 11:15:13;;;;;;;1.73;1.30;;;20.40;51.80;;;;;;4879917;29;21222;-78
2023/04/10 11:17:54;;;;;;;2.47;2.10;;;20.10;52.10;;;;;;4855668;29;20642;-76
2023/04/10 11:20:25;;;;;;;2.40;1.50;;;20.50;52.80;;;;;;4880877;29;20490;-73
2023/04/10 11:23:10;;;;;;;8.17;5.10;;;21.10;51.70;;;;;;4870675;29;20498;-74
2023/04/10 11:25:56;;;;;;;2.00;1.47;;;21.40;51.50;;;;;;4874408;29;20493;-74
2023/04/10 11:28:50;;;;;;;2.23;1.70;;;21.70;51.00;;;;;;4845324;29;20534;-74
2023/04/10 11:31:23;;;;;;;3.00;1.83;;;21.70;50.30;;;;;;4871058;29;20486;-74
2023/04/10 11:34:01;;;;;;;2.30;1.90;;;21.30;49.60;;;;;;4898313;29;20495;-77
2023/04/10 11:36:29;;;;;;;2.20;1.77;;;20.60;49.10;;;;;;4879799;29;20463;-73
2023/04/10 11:39:04;;;;;;;1.97;1.77;;;20.70;50.50;;;;;;4871892;29;20466;-78
2023/04/10 11:41:35;;;;;;;2.47;1.90;;;20.80;51.10;;;;;;4872617;29;20658;-73
2023/04/10 11:44:03;;;;;;;1.80;1.60;;;21.50;51.60;;;;;;4878822;29;20498;-74
2023/04/10 11:46:39;;;;;;;2.47;2.10;;;22.10;50.60;;;;;;4876365;29;20486;-75
2023/04/10 11:49:09;;;;;;;2.10;1.90;;;22.70;52.50;;;;;;4873002;29;20466;-76
2023/04/10 11:51:39;;;;;;;3.00;1.77;;;23.10;52.00;;;;;;4871796;29;20466;-76
2023/04/10 11:54:09;;;;;;;4.10;2.20;;;23.10;49.20;;;;;;4867780;29;20478;-74
2023/04/10 11:56:44;;;;;;;2.27;2.07;;;22.60;51.00;;;;;;4882640;29;21237;-73
2023/04/10 11:59:18;;;;;;;2.63;1.80;;;22.30;51.40;;;;;;4873632;29;21034;-77
2023/04/10 12:01:48;;;;;;;2.07;1.57;;;21.80;50.10;;;;;;4871162;29;21174;-76
2023/04/10 12:04:17;;;;;;;4.97;1.93;;;21.30;51.10;;;;;;4871148;29;20479;-73
2023/04/10 12:06:45;;;;;;;2.70;2.00;;;21.10;50.70;;;;;;4872318;29;20463;-75
2023/04/10 12:09:19;;;;;;;3.53;2.50;;;21.50;52.10;;;;;;4875571;29;20546;-74
2023/04/10 12:11:52;;;;;;;2.03;1.70;;;22.00;50.60;;;;;;4869439;29;20995;-76
2023/04/10 12:14:20;;;;;;;3.17;2.10;;;21.60;50.70;;;;;;4876197;29;20588;-74
2023/04/10 12:16:48;;;;;;;1.97;1.77;;;21.10;49.90;;;;;;4867289;29;20561;-75
2023/04/10 12:19:19;;;;;;;3.33;2.13;;;21.10;50.00;;;;;;4868888;29;20464;-75
2023/04/10 12:21:50;;;;;;;1.73;1.53;;;21.30;50.30;;;;;;4880269;29;20617;-74
2023/04/10 12:24:41;;;;;;;4.57;3.07;;;22.00;50.40;;;;;;4853282;29;20522;-75
2023/04/10 12:27:16;;;;;;;2.90;2.57;;;22.40;49.40;;;;;;4874268;29;20569;-78
2023/04/10 12:29:46;;;;;;;3.10;2.03;;;21.50;49.30;;;;;;4872950;29;20613;-77
2023/04/10 12:32:14;;;;;;;1.83;1.50;;;21.50;49.70;;;;;;4877461;29;20475;-77
2023/04/10 12:34:41;;;;;;;2.03;1.83;;;21.30;49.40;;;;;;4888594;29;20542;-75
2023/04/10 12:37:11;;;;;;;2.10;1.60;;;21.00;49.70;;;;;;4871624;29;20691;-75
2023/04/10 12:39:38;;;;;;;6.10;1.97;;;21.10;50.20;;;;;;4880847;29;20463;-78
2023/04/10 12:42:14;;;;;;;2.33;2.07;;;21.40;49.70;;;;;;4883696;29;20573;-72
2023/04/10 12:44:52;;;;;;;2.43;2.10;;;21.50;49.80;;;;;;4848355;29;20454;-74
2023/04/10 12:47:19;;;;;;;8.20;2.77;;;21.40;50.00;;;;;;4872264;29;20516;-73
2023/04/10 12:50:10;;;;;;;1.73;1.60;;;21.10;50.10;;;;;;4855956;29;20466;-73
2023/04/10 12:52:39;;;;;;;1.83;1.70;;;21.10;48.60;;;;;;4867557;29;20480;-74
2023/04/10 12:55:12;;;;;;;2.50;2.00;;;21.00;49.70;;;;;;4873838;29;20484;-76
2023/04/10 12:57:41;;;;;;;2.17;1.70;;;21.00;49.00;;;;;;4873202;29;20482;-73
2023/04/10 13:00:10;;;;;;;2.93;1.83;;;21.00;49.00;;;;;;4879006;29;21245;-73
2023/04/10 13:02:38;;;;;;;1.80;1.30;;;21.70;49.20;;;;;;4877681;29;20483;-74
2023/04/10 13:05:07;;;;;;;3.30;2.10;;;22.20;48.50;;;;;;4888343;29;20930;-73
2023/04/10 13:07:37;;;;;;;5.37;2.60;;;22.50;47.80;;;;;;4877874;29;20489;-73